Time;durP1;ratioP1;P1;durP2;ratioP2;P2;SDS_P1;SDS_P2;PMS_P1;PMS_P2;Temp;Humidity;BMP_temperature;BMP_pressure;BME280_temperature;BME280_humidity;BME280_pressure;Samples;Min_cycle;Max_cycle;Signal;HPM_P1;HPM_P2
2021/01/13 00:00:53;;;;;;;13.37;4.00;;;1.60;92.60;;;;;;4920731;29;20043;-74
2021/01/13 00:03:18;;;;;;;20.37;4.60;;;1.60;92.60;;;;;;4920641;29;20040;-75
2021/01/13 00:05:44;;;;;;;16.40;5.20;;;1.60;92.70;;;;;;4937399;29;20102;-75
2021/01/13 00:08:10;;;;;;;15.20;4.73;;;1.60;92.80;;;;;;4920418;29;20035;-74
2021/01/13 00:10:36;;;;;;;11.13;4.20;;;1.60;92.80;;;;;;4920539;29;20028;-74
2021/01/13 00:13:02;;;;;;;8.80;3.60;;;1.60;92.70;;;;;;4904788;29;20058;-74
2021/01/13 00:15:28;;;;;;;16.47;3.07;;;1.60;92.70;;;;;;4920090;29;20032;-74
2021/01/13 00:17:54;;;;;;;11.97;2.67;;;1.50;92.70;;;;;;4937074;29;20031;-74
2021/01/13 00:20:19;;;;;;;10.67;2.97;;;1.50;92.70;;;;;;4920147;29;20106;-74
2021/01/13 00:22:46;;;;;;;11.27;2.20;;;1.50;92.70;;;;;;4937367;29;20031;-74
2021/01/13 00:25:13;;;;;;;10.47;2.60;;;1.50;93.00;;;;;;4937094;29;20032;-75
2021/01/13 00:27:39;;;;;;;8.57;2.60;;;1.50;92.80;;;;;;4936973;29;20038;-74
2021/01/13 00:30:05;;;;;;;10.10;2.10;;;1.40;92.80;;;;;;4919405;29;20122;-74
2021/01/13 00:32:32;;;;;;;8.87;2.50;;;1.40;92.80;;;;;;4936486;29;20035;-74
2021/01/13 00:34:58;;;;;;;12.00;2.07;;;1.40;92.80;;;;;;4936756;29;20444;-74
2021/01/13 00:37:23;;;;;;;9.63;2.37;;;1.40;92.90;;;;;;4920049;29;20024;-74
2021/01/13 00:39:50;;;;;;;11.53;2.27;;;1.40;92.90;;;;;;4888587;29;20040;-75
2021/01/13 00:42:16;;;;;;;14.57;2.47;;;1.40;92.90;;;;;;4936982;29;20090;-74
2021/01/13 00:44:42;;;;;;;8.07;2.00;;;1.30;92.90;;;;;;4936976;29;20114;-74
2021/01/13 00:47:07;;;;;;;15.37;2.80;;;1.40;92.90;;;;;;4937299;29;20035;-74
2021/01/13 00:49:33;;;;;;;13.03;1.53;;;1.30;93.00;;;;;;4919834;29;20031;-74
2021/01/13 00:51:58;;;;;;;9.10;1.90;;;1.30;93.00;;;;;;4936752;29;20049;-74
2021/01/13 00:54:24;;;;;;;8.67;2.03;;;1.30;93.00;;;;;;4936532;29;20048;-74
2021/01/13 00:56:50;;;;;;;15.80;1.77;;;1.30;93.30;;;;;;4936453;29;20046;-74
2021/01/13 00:59:16;;;;;;;17.27;2.77;;;1.40;93.40;;;;;;4919292;29;20067;-73
2021/01/13 01:01:44;;;;;;;9.47;1.90;;;1.50;93.50;;;;;;4936423;29;20543;-74
2021/01/13 01:04:10;;;;;;;11.80;1.90;;;1.50;93.80;;;;;;4919309;29;20032;-74
2021/01/13 01:06:37;;;;;;;14.97;2.33;;;1.50;93.50;;;;;;4919433;29;20031;-76
2021/01/13 01:09:04;;;;;;;7.97;1.40;;;1.60;93.50;;;;;;4919169;29;20045;-84
2021/01/13 01:11:36;;;;;;;13.47;1.80;;;1.60;93.50;;;;;;4919235;29;20487;-84
2021/01/13 01:14:02;;;;;;;9.47;2.30;;;1.70;93.50;;;;;;4919096;29;20032;-83
2021/01/13 01:16:30;;;;;;;13.83;2.10;;;1.70;93.60;;;;;;4919052;29;20043;-82
2021/01/13 01:18:55;;;;;;;11.63;2.37;;;1.70;93.50;;;;;;4919240;29;20040;-83
2021/01/13 01:21:21;;;;;;;10.07;2.30;;;1.70;93.60;;;;;;4936118;29;20106;-83
2021/01/13 01:23:46;;;;;;;14.63;2.40;;;1.80;93.60;;;;;;4919057;29;20032;-83
2021/01/13 01:26:12;;;;;;;10.40;2.63;;;1.80;93.60;;;;;;4935978;29;20109;-83
2021/01/13 01:28:38;;;;;;;15.83;3.23;;;1.90;93.70;;;;;;4918994;29;20400;-83
2021/01/13 01:31:03;;;;;;;14.77;2.47;;;1.90;93.70;;;;;;4903207;29;20078;-82
2021/01/13 01:33:29;;;;;;;11.17;2.33;;;2.00;93.70;;;;;;4903113;29;20480;-83
2021/01/13 01:35:54;;;;;;;12.23;2.90;;;2.00;93.70;;;;;;4935783;29;20098;-84
2021/01/13 01:38:20;;;;;;;10.07;1.83;;;2.10;93.60;;;;;;4919038;29;20500;-83
2021/01/13 01:40:46;;;;;;;12.77;2.73;;;2.20;93.60;;;;;;4935979;29;20480;-84
2021/01/13 01:43:11;;;;;;;7.80;1.50;;;2.20;93.60;;;;;;4906337;29;20023;-83
2021/01/13 01:45:37;;;;;;;9.43;1.70;;;2.20;93.60;;;;;;4922975;29;20106;-83
2021/01/13 01:48:26;;;;;;;9.83;2.00;;;2.20;93.50;;;;;;4922879;29;20127;-83
2021/01/13 01:50:56;;;;;;;7.43;1.60;;;2.30;93.50;;;;;;4922866;29;20395;-83
2021/01/13 01:53:36;;;;;;;8.53;1.13;;;2.30;93.50;;;;;;4922765;29;20028;-83
2021/01/13 01:56:23;;;;;;;11.03;1.10;;;2.30;93.50;;;;;;4922673;29;20063;-84
2021/01/13 01:58:50;;;;;;;5.93;1.63;;;2.30;93.40;;;;;;4939734;29;20070;-84
2021/01/13 02:01:33;;;;;;;9.30;1.70;;;2.30;93.40;;;;;;4922912;29;20062;-83
2021/01/13 02:04:07;;;;;;;7.70;1.17;;;2.30;93.30;;;;;;4922687;29;20034;-84
2021/01/13 02:06:42;;;;;;;5.57;0.50;;;2.30;93.30;;;;;;4922569;29;20383;-84
2021/01/13 02:09:08;;;;;;;4.80;0.60;;;2.30;93.30;;;;;;4939850;29;20028;-83
2021/01/13 02:11:37;;;;;;;7.40;1.50;;;2.30;93.30;;;;;;4939515;29;20147;-84
2021/01/13 02:14:03;;;;;;;8.10;0.93;;;2.30;93.20;;;;;;4922457;29;20028;-84
2021/01/13 02:16:31;;;;;;;9.77;1.03;;;2.30;93.20;;;;;;4939529;29;20057;-84
2021/01/13 02:19:00;;;;;;;9.50;1.63;;;2.30;93.20;;;;;;4922316;29;20388;-83
2021/01/13 02:21:31;;;;;;;9.77;1.13;;;2.20;93.20;;;;;;4922320;29;20056;-84
2021/01/13 02:24:09;;;;;;;7.57;1.17;;;2.20;93.20;;;;;;4922283;29;20103;-83
2021/01/13 02:27:16;;;;;;;8.87;1.50;;;2.20;93.20;;;;;;4922198;29;20423;-83
2021/01/13 02:29:49;;;;;;;12.53;1.20;;;2.10;93.20;;;;;;4894712;29;20090;-83
2021/01/13 02:32:22;;;;;;;7.87;1.50;;;2.10;93.20;;;;;;4939115;29;20491;-83
2021/01/13 02:35:03;;;;;;;9.13;2.03;;;2.10;93.30;;;;;;4939023;29;20078;-83
2021/01/13 02:37:40;;;;;;;6.93;0.90;;;2.00;93.20;;;;;;4939313;29;20074;-83
2021/01/13 02:40:27;;;;;;;6.97;1.23;;;2.00;93.20;;;;;;4921905;29;20067;-83
2021/01/13 02:43:06;;;;;;;17.13;1.53;;;2.00;93.30;;;;;;4921871;29;20090;-83
2021/01/13 02:45:47;;;;;;;11.30;1.53;;;2.00;93.40;;;;;;4938883;29;20027;-84
2021/01/13 02:48:13;;;;;;;8.30;1.23;;;1.90;93.40;;;;;;4938917;29;20028;-83
2021/01/13 02:50:45;;;;;;;8.23;1.30;;;1.90;93.50;;;;;;4938987;29;20032;-84
2021/01/13 02:53:14;;;;;;;14.10;1.60;;;1.90;93.50;;;;;;4938404;29;20472;-83
2021/01/13 02:56:02;;;;;;;11.47;1.60;;;1.90;93.60;;;;;;4921677;29;20040;-83
2021/01/13 02:58:36;;;;;;;13.03;1.70;;;2.00;93.50;;;;;;4938687;29;20036;-84
2021/01/13 03:01:07;;;;;;;11.60;1.80;;;2.00;93.50;;;;;;4921753;29;20440;-82
2021/01/13 03:03:34;;;;;;;15.43;2.27;;;2.00;93.50;;;;;;4921486;29;20035;-82
2021/01/13 03:06:07;;;;;;;10.53;1.73;;;2.00;93.70;;;;;;4938445;29;20027;-83
2021/01/13 03:08:47;;;;;;;16.47;2.17;;;2.00;93.50;;;;;;4938442;29;20396;-74
2021/01/13 03:11:19;;;;;;;12.50;1.50;;;2.00;93.50;;;;;;4921426;29;20016;-74
2021/01/13 03:13:46;;;;;;;7.63;1.43;;;2.10;93.50;;;;;;4921727;29;20024;-74
2021/01/13 03:16:13;;;;;;;6.47;1.43;;;2.10;93.50;;;;;;4921853;29;20480;-74
2021/01/13 03:19:11;;;;;;;11.77;1.63;;;2.10;93.50;;;;;;4921440;29;20035;-74
2021/01/13 03:21:50;;;;;;;11.00;1.53;;;2.10;93.50;;;;;;4920553;29;20043;-74
2021/01/13 03:24:21;;;;;;;10.93;2.57;;;2.10;93.50;;;;;;4938658;29;20028;-74
2021/01/13 03:26:48;;;;;;;14.10;2.07;;;2.10;93.80;;;;;;4906648;29;20031;-74
2021/01/13 03:29:20;;;;;;;9.27;1.93;;;2.10;93.50;;;;;;4920972;29;20038;-74
2021/01/13 03:32:05;;;;;;;9.13;1.77;;;2.10;93.50;;;;;;4938316;29;20372;-74
2021/01/13 03:34:39;;;;;;;13.73;2.43;;;2.20;93.60;;;;;;4937920;29;20055;-74
2021/01/13 03:37:23;;;;;;;12.43;2.33;;;2.30;93.60;;;;;;4921384;29;20028;-74
2021/01/13 03:39:52;;;;;;;10.90;2.30;;;2.20;93.70;;;;;;4937977;29;20107;-74
2021/01/13 03:42:20;;;;;;;8.80;1.83;;;2.30;93.70;;;;;;4920940;29;20155;-74
2021/01/13 03:44:47;;;;;;;16.03;2.43;;;2.40;93.70;;;;;;4905280;29;20058;-74
2021/01/13 03:47:18;;;;;;;13.67;1.93;;;2.40;93.70;;;;;;4920792;29;20027;-74
2021/01/13 03:50:23;;;;;;;14.37;1.60;;;2.50;93.80;;;;;;4920623;29;20035;-74
2021/01/13 03:53:00;;;;;;;5.87;1.23;;;2.50;93.90;;;;;;4920703;29;20479;-74
2021/01/13 03:55:33;;;;;;;7.60;1.80;;;2.50;94.00;;;;;;4920594;29;20264;-74
2021/01/13 03:58:08;;;;;;;7.68;1.13;;;2.60;94.10;;;;;;4920419;29;20082;-74
2021/01/13 04:01:01;;;;;;;7.67;1.20;;;2.60;94.10;;;;;;4920324;29;20396;-75
2021/01/13 04:03:31;;;;;;;14.33;1.20;;;2.70;94.10;;;;;;4937555;29;20027;-75
2021/01/13 04:06:06;;;;;;;9.47;1.37;;;2.70;94.10;;;;;;4888829;29;20023;-74
2021/01/13 04:08:42;;;;;;;11.57;1.53;;;2.70;94.10;;;;;;4920546;29;20126;-74
2021/01/13 04:11:10;;;;;;;12.07;1.60;;;2.80;94.10;;;;;;4920343;29;20079;-74
2021/01/13 04:13:36;;;;;;;11.97;2.17;;;2.80;94.10;;;;;;4920500;29;20031;-74
2021/01/13 04:16:02;;;;;;;9.27;1.97;;;2.80;94.10;;;;;;4920552;29;20130;-74
2021/01/13 04:18:28;;;;;;;11.20;2.37;;;2.80;94.00;;;;;;4919971;29;20395;-74
2021/01/13 04:20:55;;;;;;;21.37;2.60;;;2.80;94.00;;;;;;4904351;29;20099;-74
2021/01/13 04:23:21;;;;;;;12.47;1.60;;;2.90;94.10;;;;;;4904634;29;20028;-75
2021/01/13 04:25:47;;;;;;;10.27;1.80;;;2.90;94.20;;;;;;4904354;29;20079;-75
2021/01/13 04:28:13;;;;;;;10.53;2.50;;;2.90;94.30;;;;;;4920468;29;20035;-74
2021/01/13 04:30:39;;;;;;;9.57;2.30;;;2.90;94.40;;;;;;4904260;29;20050;-75
2021/01/13 04:33:06;;;;;;;13.10;2.27;;;2.90;94.40;;;;;;4936538;29;20480;-75
2021/01/13 04:35:32;;;;;;;15.00;2.00;;;3.00;94.40;;;;;;4919637;29;20071;-75
2021/01/13 04:37:58;;;;;;;7.07;1.50;;;3.00;94.40;;;;;;4904040;29;20047;-74
2021/01/13 04:40:24;;;;;;;10.70;1.80;;;3.00;94.40;;;;;;4919626;29;20417;-74
2021/01/13 04:43:09;;;;;;;10.27;1.93;;;3.00;94.40;;;;;;4936811;29;20132;-74
2021/01/13 04:45:46;;;;;;;9.33;1.47;;;3.10;94.50;;;;;;4919956;29;20056;-74
2021/01/13 04:48:20;;;;;;;8.93;1.57;;;3.00;94.40;;;;;;4920050;29;20019;-74
2021/01/13 04:50:48;;;;;;;10.52;1.40;;;3.10;94.40;;;;;;4919704;29;20024;-74
2021/01/13 04:53:23;;;;;;;12.33;1.73;;;3.10;94.50;;;;;;4936743;29;20028;-74
2021/01/13 04:55:50;;;;;;;6.07;0.97;;;3.10;94.50;;;;;;4919558;29;20028;-74
2021/01/13 04:58:34;;;;;;;7.73;1.83;;;3.10;94.70;;;;;;4919477;29;20028;-75
2021/01/13 05:01:18;;;;;;;8.43;1.10;;;3.10;94.40;;;;;;4922056;29;20032;-74
2021/01/13 05:03:59;;;;;;;7.68;1.10;;;3.10;94.40;;;;;;4919243;29;20456;-75
2021/01/13 05:06:47;;;;;;;11.70;1.10;;;3.20;94.40;;;;;;4919026;29;20024;-74
2021/01/13 05:09:14;;;;;;;10.77;0.97;;;3.20;94.40;;;;;;4936412;29;20035;-75
2021/01/13 05:11:44;;;;;;;3.10;0.60;;;3.20;94.40;;;;;;4937136;29;20460;-74
2021/01/13 05:14:14;;;;;;;7.23;0.87;;;3.20;94.40;;;;;;4919279;29;20070;-74
2021/01/13 05:16:51;;;;;;;6.97;0.80;;;3.20;94.40;;;;;;4936531;29;20122;-75
2021/01/13 05:19:32;;;;;;;9.63;0.73;;;3.20;94.30;;;;;;4936487;29;20375;-74
2021/01/13 05:21:59;;;;;;;6.80;1.40;;;3.20;94.30;;;;;;4936577;29;20027;-74
2021/01/13 05:24:26;;;;;;;6.27;1.43;;;3.10;94.20;;;;;;4903313;29;20024;-74
2021/01/13 05:27:03;;;;;;;12.10;1.60;;;3.10;94.20;;;;;;4936115;29;20027;-75
2021/01/13 05:29:36;;;;;;;6.40;1.50;;;3.10;94.10;;;;;;4919028;29;20075;-74
2021/01/13 05:32:04;;;;;;;10.00;1.38;;;3.00;94.10;;;;;;4935907;29;20027;-74
2021/01/13 05:34:32;;;;;;;6.30;1.10;;;3.00;94.10;;;;;;4919034;29;20036;-75
2021/01/13 05:37:17;;;;;;;9.10;1.27;;;2.90;94.10;;;;;;4935902;29;20052;-74
2021/01/13 05:39:49;;;;;;;13.57;1.20;;;3.00;94.20;;;;;;4919053;29;20059;-74
2021/01/13 05:42:17;;;;;;;8.03;1.57;;;3.00;94.30;;;;;;4936087;29;20118;-74
2021/01/13 05:44:43;;;;;;;13.07;1.63;;;2.90;94.30;;;;;;4918924;29;20091;-75
2021/01/13 05:47:49;;;;;;;13.90;1.33;;;2.90;94.30;;;;;;4935878;29;20030;-75
2021/01/13 05:50:18;;;;;;;12.23;1.93;;;2.90;94.30;;;;;;4921842;29;20059;-75
2021/01/13 05:52:46;;;;;;;8.43;1.30;;;2.90;94.20;;;;;;4918666;29;20028;-74
2021/01/13 05:55:14;;;;;;;11.43;2.03;;;2.90;94.20;;;;;;4935461;29;20031;-75
2021/01/13 05:57:55;;;;;;;10.47;1.40;;;2.80;94.20;;;;;;4919269;29;20063;-74
2021/01/13 06:00:23;;;;;;;13.47;2.73;;;2.80;94.20;;;;;;4903501;29;20038;-75
2021/01/13 06:02:54;;;;;;;12.70;3.20;;;2.70;94.30;;;;;;4935893;29;20024;-74
2021/01/13 06:05:21;;;;;;;10.83;1.90;;;2.70;94.30;;;;;;4903876;29;20071;-74
2021/01/13 06:07:51;;;;;;;10.83;2.10;;;2.70;94.40;;;;;;4887556;29;20036;-74
2021/01/13 06:10:18;;;;;;;9.63;2.07;;;2.70;94.40;;;;;;4935791;29;20032;-74
2021/01/13 06:12:48;;;;;;;14.07;2.30;;;2.60;94.50;;;;;;4935790;29;20020;-74
2021/01/13 06:15:14;;;;;;;9.47;2.20;;;2.60;94.50;;;;;;4902927;29;20059;-74
2021/01/13 06:17:50;;;;;;;14.17;2.60;;;2.60;94.50;;;;;;4887469;29;20444;-74
2021/01/13 06:20:30;;;;;;;15.90;2.67;;;2.60;94.50;;;;;;4918363;29;20023;-74
2021/01/13 06:22:58;;;;;;;12.47;2.50;;;2.50;94.50;;;;;;4934469;29;20032;-74
2021/01/13 06:25:26;;;;;;;10.70;2.43;;;2.50;94.50;;;;;;4935181;29;20039;-74
2021/01/13 06:28:05;;;;;;;11.83;2.50;;;2.50;94.60;;;;;;4918910;29;20464;-74
2021/01/13 06:30:39;;;;;;;12.07;3.77;;;2.50;94.60;;;;;;4922202;29;20032;-74
2021/01/13 06:33:20;;;;;;;13.30;2.53;;;2.50;94.50;;;;;;4921753;29;20024;-75
2021/01/13 06:36:11;;;;;;;11.87;2.07;;;2.50;94.50;;;;;;4939145;29;20071;-74
2021/01/13 06:38:46;;;;;;;11.77;1.67;;;2.50;94.50;;;;;;4922005;29;20392;-74
2021/01/13 06:41:12;;;;;;;6.80;1.67;;;2.50;94.40;;;;;;4921860;29;20059;-74
2021/01/13 06:43:38;;;;;;;12.00;2.37;;;2.50;94.40;;;;;;4939192;29;20596;-74
2021/01/13 06:46:18;;;;;;;11.60;2.83;;;2.50;94.30;;;;;;4906341;29;20115;-74
2021/01/13 06:48:43;;;;;;;13.67;2.10;;;2.50;94.30;;;;;;4921874;29;20023;-74
2021/01/13 06:51:16;;;;;;;11.83;1.70;;;2.50;94.20;;;;;;4890489;29;20035;-74
2021/01/13 06:53:46;;;;;;;18.50;3.47;;;2.50;94.20;;;;;;4921742;29;20488;-74
2021/01/13 06:56:14;;;;;;;21.47;2.20;;;2.50;94.10;;;;;;4921823;29;20416;-74
2021/01/13 06:58:54;;;;;;;10.97;1.97;;;2.50;94.00;;;;;;4921651;29;20032;-74
2021/01/13 07:01:20;;;;;;;14.23;1.60;;;2.50;94.00;;;;;;4907707;29;20027;-74
2021/01/13 07:03:46;;;;;;;12.90;1.67;;;2.50;93.80;;;;;;4921561;29;20362;-74
2021/01/13 07:06:11;;;;;;;13.67;1.70;;;2.60;93.80;;;;;;4921585;29;20024;-74
2021/01/13 07:08:38;;;;;;;10.67;1.20;;;2.50;93.70;;;;;;4921414;29;20033;-74
2021/01/13 07:11:06;;;;;;;14.33;1.80;;;2.60;93.70;;;;;;4906202;29;20413;-74
2021/01/13 07:13:33;;;;;;;20.93;2.43;;;2.60;93.60;;;;;;4905932;29;20031;-74
2021/01/13 07:16:01;;;;;;;15.20;2.00;;;2.60;93.60;;;;;;4921602;29;20094;-74
2021/01/13 07:18:27;;;;;;;8.90;1.40;;;2.50;93.50;;;;;;4905240;29;20067;-74
2021/01/13 07:20:54;;;;;;;6.77;1.43;;;2.50;93.50;;;;;;4921144;29;20467;-75
2021/01/13 07:23:21;;;;;;;12.23;2.07;;;2.50;93.50;;;;;;4921383;29;20023;-74
2021/01/13 07:25:50;;;;;;;11.17;1.57;;;2.50;93.50;;;;;;4905348;29;20020;-74
2021/01/13 07:28:17;;;;;;;11.10;1.93;;;2.50;93.50;;;;;;4905996;29;20468;-74
2021/01/13 07:30:44;;;;;;;8.23;1.67;;;2.50;93.50;;;;;;4920931;29;20024;-74
2021/01/13 07:33:14;;;;;;;9.67;1.63;;;2.50;93.50;;;;;;4905457;29;20131;-74
2021/01/13 07:35:48;;;;;;;9.53;1.67;;;2.40;93.50;;;;;;4920724;29;20455;-74
2021/01/13 07:38:19;;;;;;;14.07;1.63;;;2.40;93.50;;;;;;4920851;29;20047;-74
2021/01/13 07:41:03;;;;;;;11.43;1.80;;;2.40;93.50;;;;;;4938398;29;20019;-74
2021/01/13 07:44:03;;;;;;;8.38;1.45;;;2.40;93.50;;;;;;4920795;29;20027;-74
2021/01/13 07:46:30;;;;;;;11.57;1.23;;;2.30;93.50;;;;;;4937684;29;20032;-74
2021/01/13 07:49:21;;;;;;;6.03;1.50;;;2.30;93.50;;;;;;4921117;29;20038;-74
2021/01/13 07:51:48;;;;;;;7.30;1.53;;;2.30;93.50;;;;;;4920477;29;20030;-74
2021/01/13 07:54:25;;;;;;;10.53;2.17;;;2.30;93.50;;;;;;4937687;29;20098;-74
2021/01/13 07:56:55;;;;;;;11.50;2.33;;;2.30;93.50;;;;;;4937599;29;20024;-73
2021/01/13 07:59:29;;;;;;;11.40;2.50;;;2.30;93.60;;;;;;4937228;29;20480;-73
2021/01/13 08:02:34;;;;;;;11.30;1.87;;;2.30;93.70;;;;;;4937444;29;20028;-73
2021/01/13 08:05:28;;;;;;;14.98;2.55;;;2.30;93.60;;;;;;4920393;29;20386;-73
2021/01/13 08:08:10;;;;;;;12.53;2.07;;;2.30;93.70;;;;;;4937311;29;20034;-74
2021/01/13 08:10:40;;;;;;;11.70;1.67;;;2.30;93.70;;;;;;4920226;29;20082;-74
2021/01/13 08:13:36;;;;;;;11.50;2.50;;;2.30;93.70;;;;;;4947330;29;20070;-74
2021/01/13 08:16:24;;;;;;;12.77;2.20;;;2.30;93.70;;;;;;4956681;29;20479;-73
2021/01/13 08:19:17;;;;;;;8.27;1.60;;;2.30;93.70;;;;;;4956289;29;20117;-73
2021/01/13 08:21:50;;;;;;;17.63;3.03;;;2.30;93.70;;;;;;4956333;29;20034;-73
2021/01/13 08:24:25;;;;;;;10.67;2.87;;;2.30;93.70;;;;;;4956453;28;20130;-73
2021/01/13 08:26:51;;;;;;;12.80;2.30;;;2.40;93.80;;;;;;4939185;29;20408;-73
2021/01/13 08:29:27;;;;;;;8.10;1.83;;;2.30;93.70;;;;;;4957098;28;20044;-73
2021/01/13 08:32:10;;;;;;;14.17;2.63;;;2.40;93.70;;;;;;4946836;29;20042;-73
2021/01/13 08:34:37;;;;;;;9.77;1.70;;;2.40;93.80;;;;;;4974390;28;20483;-73
2021/01/13 08:37:03;;;;;;;10.07;1.60;;;2.40;93.70;;;;;;4955873;29;20380;-73
2021/01/13 08:39:30;;;;;;;12.77;1.80;;;2.40;93.70;;;;;;4955544;29;20046;-73
2021/01/13 08:42:25;;;;;;;9.90;1.90;;;2.50;93.80;;;;;;4956343;29;20035;-73
2021/01/13 08:44:54;;;;;;;7.80;1.67;;;2.50;93.70;;;;;;4956227;29;20371;-73
2021/01/13 08:47:21;;;;;;;13.43;2.03;;;2.60;93.70;;;;;;4939077;29;20035;-73
2021/01/13 08:49:48;;;;;;;12.43;2.20;;;2.60;93.70;;;;;;4956014;29;20428;-73
2021/01/13 08:52:26;;;;;;;13.10;2.07;;;2.60;93.70;;;;;;4938440;29;20071;-73
2021/01/13 08:54:54;;;;;;;11.97;2.00;;;2.60;93.70;;;;;;4938885;29;20031;-73
2021/01/13 08:57:20;;;;;;;8.70;1.60;;;2.70;93.70;;;;;;4938781;29;20570;-73
2021/01/13 08:59:48;;;;;;;11.70;2.10;;;2.70;93.70;;;;;;4935640;29;20127;-73
2021/01/13 09:02:17;;;;;;;10.67;1.90;;;2.80;93.70;;;;;;4927783;29;20039;-73
2021/01/13 09:04:50;;;;;;;13.43;2.40;;;2.80;93.70;;;;;;4913575;29;20508;-73
2021/01/13 09:07:18;;;;;;;11.73;2.03;;;2.90;93.70;;;;;;4952824;29;20147;-73
2021/01/13 09:09:58;;;;;;;10.77;2.33;;;2.90;93.60;;;;;;4954940;28;20081;-73
2021/01/13 09:12:32;;;;;;;6.83;1.67;;;2.90;93.50;;;;;;4950566;28;20090;-73
2021/01/13 09:15:09;;;;;;;5.18;1.08;;;3.00;93.60;;;;;;4937151;29;20068;-73
2021/01/13 09:17:37;;;;;;;16.07;2.27;;;3.00;93.60;;;;;;4955128;29;20031;-73
2021/01/13 09:20:05;;;;;;;10.77;1.87;;;3.10;93.50;;;;;;4956010;29;20106;-73
2021/01/13 09:22:54;;;;;;;14.80;2.00;;;3.10;93.40;;;;;;4955602;29;20046;-73
2021/01/13 09:25:44;;;;;;;9.20;1.80;;;3.20;93.50;;;;;;4937330;29;20027;-74
2021/01/13 09:28:18;;;;;;;9.03;1.60;;;3.30;93.60;;;;;;4938407;29;20031;-73
2021/01/13 09:30:44;;;;;;;12.10;2.05;;;3.30;93.40;;;;;;4937996;29;20031;-73
2021/01/13 09:33:20;;;;;;;15.80;2.17;;;3.40;93.40;;;;;;4938193;29;20121;-73
2021/01/13 09:35:47;;;;;;;14.87;2.43;;;3.50;93.40;;;;;;4937781;29;20566;-73
2021/01/13 09:38:15;;;;;;;14.93;1.77;;;3.60;93.30;;;;;;4937600;29;20435;-73
2021/01/13 09:41:01;;;;;;;9.70;1.63;;;3.70;93.30;;;;;;4937804;29;20031;-73
2021/01/13 09:43:46;;;;;;;13.73;1.53;;;3.80;93.10;;;;;;4955286;29;20023;-73
2021/01/13 09:46:21;;;;;;;;;;;4.00;93.10;;;;;;4938899;29;20031;-74
2021/01/13 09:48:57;;;;;;;9.32;1.60;;;4.30;92.70;;;;;;4955176;29;20433;-73
2021/01/13 09:51:22;;;;;;;11.30;2.30;;;4.60;92.90;;;;;;4954971;29;20031;-73
2021/01/13 09:53:49;;;;;;;9.10;1.60;;;5.00;93.40;;;;;;4938174;29;20046;-74
2021/01/13 09:56:15;;;;;;;11.50;1.57;;;5.40;93.30;;;;;;4938054;29;20066;-74
2021/01/13 09:58:44;;;;;;;10.27;1.17;;;5.90;93.10;;;;;;4924616;28;20499;-75
2021/01/13 10:01:12;;;;;;;7.67;1.10;;;6.40;92.20;;;;;;4939189;29;20046;-74
2021/01/13 10:03:39;;;;;;;9.50;1.00;;;6.80;91.40;;;;;;4938037;29;20047;-73
2021/01/13 10:06:17;;;;;;;9.43;1.30;;;7.30;91.00;;;;;;4951123;29;20035;-73
2021/01/13 10:08:43;;;;;;;9.77;1.30;;;7.90;90.70;;;;;;4929372;29;20431;-74
2021/01/13 10:11:10;;;;;;;6.17;1.33;;;8.10;90.10;;;;;;4957865;29;20039;-73
2021/01/13 10:13:41;;;;;;;12.43;1.30;;;8.30;89.10;;;;;;4930981;29;20119;-74
2021/01/13 10:16:08;;;;;;;7.33;1.63;;;8.70;88.40;;;;;;4939750;29;20028;-74
2021/01/13 10:18:46;;;;;;;13.20;1.27;;;9.10;86.70;;;;;;4912781;29;20031;-74
2021/01/13 10:21:12;;;;;;;7.38;1.50;;;9.50;86.10;;;;;;4939409;29;20023;-74
2021/01/13 10:23:41;;;;;;;7.03;1.23;;;10.00;85.00;;;;;;4922334;29;20085;-74
2021/01/13 10:26:07;;;;;;;7.82;1.55;;;10.10;80.60;;;;;;4922056;29;20031;-74
2021/01/13 10:28:35;;;;;;;10.80;1.50;;;9.80;77.80;;;;;;4929979;29;20114;-73
2021/01/13 10:31:02;;;;;;;6.73;1.50;;;9.30;73.30;;;;;;4944890;29;20387;-73
2021/01/13 10:33:55;;;;;;;7.03;1.30;;;8.90;73.00;;;;;;4932539;29;20032;-74
2021/01/13 10:36:32;;;;;;;10.63;2.10;;;8.90;74.30;;;;;;4938298;29;20054;-74
2021/01/13 10:39:10;;;;;;;16.67;1.63;;;9.30;76.90;;;;;;4946017;29;20035;-74
2021/01/13 10:41:40;;;;;;;8.83;1.47;;;9.40;74.20;;;;;;4941796;29;20031;-74
2021/01/13 10:44:09;;;;;;;7.90;1.40;;;9.30;72.00;;;;;;4938867;29;20108;-75
2021/01/13 10:46:51;;;;;;;15.77;1.50;;;9.00;70.70;;;;;;4923351;29;20023;-76
2021/01/13 10:49:20;;;;;;;11.73;1.57;;;8.70;71.30;;;;;;4940602;29;20395;-75
2021/01/13 10:51:48;;;;;;;9.33;1.40;;;8.50;70.90;;;;;;4937410;29;20059;-75
2021/01/13 10:54:18;;;;;;;8.27;1.63;;;8.20;72.30;;;;;;4938620;29;20507;-76
2021/01/13 10:56:44;;;;;;;11.27;1.80;;;8.10;73.60;;;;;;4952015;29;20096;-75
2021/01/13 10:59:15;;;;;;;11.67;1.60;;;8.30;74.80;;;;;;4941120;29;20031;-75
2021/01/13 11:01:45;;;;;;;9.43;1.53;;;8.80;74.40;;;;;;4929074;29;20058;-76
2021/01/13 11:04:31;;;;;;;7.63;1.40;;;9.10;73.40;;;;;;4938581;29;20028;-76
2021/01/13 11:06:59;;;;;;;9.10;1.30;;;9.30;72.40;;;;;;4922349;29;20100;-76
2021/01/13 11:09:26;;;;;;;8.27;1.35;;;9.70;73.40;;;;;;4946933;29;20098;-75
2021/01/13 11:11:52;;;;;;;6.35;1.45;;;10.20;73.20;;;;;;4913275;29;20035;-75
2021/01/13 11:14:38;;;;;;;10.23;1.48;;;10.70;71.40;;;;;;4905157;29;20055;-76
2021/01/13 11:17:09;;;;;;;6.95;1.20;;;11.20;70.50;;;;;;4920990;29;20027;-76
2021/01/13 11:19:36;;;;;;;9.25;1.42;;;11.70;70.90;;;;;;4923264;29;20108;-75
2021/01/13 11:22:02;;;;;;;6.13;1.08;;;11.90;66.70;;;;;;4919084;29;20031;-75
2021/01/13 11:24:37;;;;;;;11.15;1.60;;;12.10;66.70;;;;;;4949858;29;20020;-76
2021/01/13 11:27:24;;;;;;;9.27;1.33;;;12.20;64.40;;;;;;4922960;29;20476;-76
2021/01/13 11:29:54;;;;;;;10.25;1.63;;;12.20;63.50;;;;;;4920950;29;20369;-76
2021/01/13 11:32:29;;;;;;;8.35;1.58;;;12.40;63.30;;;;;;4940055;29;20094;-76
2021/01/13 11:34:56;;;;;;;11.18;1.40;;;12.60;63.20;;;;;;4927354;29;20070;-77
2021/01/13 11:37:47;;;;;;;9.38;1.70;;;12.70;62.90;;;;;;4923057;29;20051;-76
2021/01/13 11:40:33;;;;;;;6.60;1.77;;;12.80;62.40;;;;;;4936079;29;20089;-75
2021/01/13 11:43:11;;;;;;;13.70;2.20;;;12.70;60.40;;;;;;4922890;29;20123;-75
2021/01/13 11:45:56;;;;;;;7.70;1.08;;;12.30;59.90;;;;;;4921433;29;20040;-76
2021/01/13 11:48:39;;;;;;;12.45;1.75;;;11.80;60.00;;;;;;4921250;29;20129;-76
2021/01/13 11:51:10;;;;;;;12.88;1.95;;;11.40;60.50;;;;;;4925596;29;20024;-75
2021/01/13 11:53:37;;;;;;;12.98;1.60;;;10.90;60.70;;;;;;4918758;29;20028;-78
2021/01/13 11:56:04;;;;;;;9.10;1.53;;;10.40;61.70;;;;;;4921301;29;20035;-75
2021/01/13 11:58:31;;;;;;;12.53;1.83;;;9.90;62.80;;;;;;4921254;29;20040;-75
2021/01/13 12:00:57;;;;;;;8.73;1.47;;;9.60;63.80;;;;;;4920646;29;20043;-75
2021/01/13 12:03:23;;;;;;;7.60;1.43;;;9.30;64.50;;;;;;4916676;29;20479;-74
2021/01/13 12:05:49;;;;;;;7.43;1.40;;;9.10;65.70;;;;;;4918016;29;20040;-74
2021/01/13 12:08:17;;;;;;;10.80;1.77;;;8.80;66.70;;;;;;4922301;29;20456;-75
2021/01/13 12:10:47;;;;;;;11.57;1.50;;;8.70;67.40;;;;;;4912751;29;20031;-75
2021/01/13 12:13:14;;;;;;;8.70;1.70;;;8.50;67.80;;;;;;4921119;29;20039;-75
2021/01/13 12:15:58;;;;;;;9.67;1.63;;;8.30;68.70;;;;;;4930633;29;20032;-74
2021/01/13 12:18:29;;;;;;;11.98;2.25;;;8.10;69.20;;;;;;4921602;29;20488;-76
2021/01/13 12:20:57;;;;;;;11.20;1.77;;;7.90;68.60;;;;;;4919726;29;20362;-74
2021/01/13 12:23:37;;;;;;;11.50;1.43;;;7.80;69.00;;;;;;4918715;29;20139;-74
2021/01/13 12:26:33;;;;;;;9.87;1.30;;;7.70;69.50;;;;;;4914960;29;20030;-76
2021/01/13 12:29:14;;;;;;;10.37;1.33;;;7.60;70.10;;;;;;4928731;29;20111;-75
2021/01/13 12:31:40;;;;;;;10.70;1.03;;;7.50;68.50;;;;;;4927694;29;20031;-74
2021/01/13 12:34:35;;;;;;;5.60;0.70;;;7.40;67.50;;;;;;4937306;29;20151;-78
2021/01/13 12:37:04;;;;;;;;;;;7.30;66.20;;;;;;4900051;29;20052;-75
2021/01/13 12:39:32;;;;;;;11.53;1.30;;;7.10;65.20;;;;;;4919728;29;19925;-78
2021/01/13 12:41:59;;;;;;;7.13;1.07;;;7.10;64.90;;;;;;4936737;29;20030;-74
2021/01/13 12:44:26;;;;;;;9.80;1.30;;;7.00;65.20;;;;;;4936526;29;20035;-74
2021/01/13 12:47:11;;;;;;;7.70;1.53;;;6.90;65.30;;;;;;4922165;29;20038;-75
2021/01/13 12:49:37;;;;;;;10.77;1.73;;;6.80;65.80;;;;;;4928125;29;20031;-76
2021/01/13 12:52:03;;;;;;;9.53;1.60;;;6.80;66.20;;;;;;4929880;29;20031;-76
2021/01/13 12:54:28;;;;;;;7.27;1.20;;;6.70;66.20;;;;;;4900313;29;20035;-76
2021/01/13 12:56:54;;;;;;;5.97;0.73;;;6.70;66.10;;;;;;4899414;29;20042;-76
2021/01/13 12:59:20;;;;;;;4.73;0.97;;;7.10;67.30;;;;;;4916511;29;20379;-76
2021/01/13 13:01:47;;;;;;;5.27;1.10;;;7.40;67.00;;;;;;4916596;29;20444;-75
2021/01/13 13:04:14;;;;;;;13.37;1.20;;;7.90;66.60;;;;;;4890779;29;20036;-75
2021/01/13 13:06:40;;;;;;;10.37;1.10;;;8.20;65.30;;;;;;4917947;29;20062;-77
2021/01/13 13:09:13;;;;;;;8.83;1.03;;;8.70;64.50;;;;;;4899819;29;20032;-77
2021/01/13 13:11:40;;;;;;;4.83;0.70;;;9.20;62.70;;;;;;4922812;29;20036;-75
2021/01/13 13:14:13;;;;;;;8.57;1.07;;;9.70;61.50;;;;;;4934933;29;20551;-76
2021/01/13 13:16:43;;;;;;;8.33;1.00;;;10.30;61.60;;;;;;4919936;29;20049;-80